Time;durP1;ratioP1;P1;durP2;ratioP2;P2;SDS_P1;SDS_P2;PMS_P1;PMS_P2;Temp;Humidity;BMP_temperature;BMP_pressure;BME280_temperature;BME280_humidity;BME280_pressure;Samples;Min_cycle;Max_cycle;Signal;HPM_P1;HPM_P2
2023/10/25 00:00:33;;;;;;;;;;;14.50;99.90;;;;;;5071958;28;19988;-76
2023/10/25 00:02:59;;;;;;;;;;;14.50;99.90;;;;;;5066674;28;19909;-76
2023/10/25 00:05:24;;;;;;;;;;;14.50;99.90;;;;;;5090755;28;20291;-75
2023/10/25 00:07:50;;;;;;;;;;;14.60;99.90;;;;;;5095831;28;20376;-76
2023/10/25 00:10:15;;;;;;;;;;;14.60;99.90;;;;;;5098464;28;20020;-76
2023/10/25 00:12:41;;;;;;;;;;;14.60;99.90;;;;;;5098373;28;19911;-75
2023/10/25 00:15:06;;;;;;;;;;;14.60;99.90;;;;;;5097615;28;19908;-76
2023/10/25 00:17:32;;;;;;;;;;;14.60;99.90;;;;;;5098341;28;19908;-75
2023/10/25 00:19:57;;;;;;;;;;;14.50;99.90;;;;;;5096560;28;20308;-76
2023/10/25 00:22:23;;;;;;;;;;;14.50;99.90;;;;;;5097235;28;19912;-74
2023/10/25 00:24:48;;;;;;;;;;;14.60;99.90;;;;;;5097230;28;19953;-74
2023/10/25 00:27:14;;;;;;;;;;;14.60;99.90;;;;;;5097429;28;19920;-75
2023/10/25 00:29:39;;;;;;;;;;;14.70;99.90;;;;;;5097287;28;19909;-75
2023/10/25 00:32:05;;;;;;;;;;;14.70;99.90;;;;;;5098392;28;19909;-75
2023/10/25 00:34:31;;;;;;;;;;;14.70;99.90;;;;;;5096579;28;19912;-76
2023/10/25 00:36:56;;;;;;;;;;;14.70;99.90;;;;;;5098366;28;19912;-75
2023/10/25 00:39:22;;;;;;;;;;;14.60;99.90;;;;;;5084678;28;19916;-76
2023/10/25 00:41:47;;;;;;;;;;;14.70;99.90;;;;;;5097258;28;20042;-76
2023/10/25 00:44:13;;;;;;;;;;;14.60;99.90;;;;;;5095807;28;19912;-77
2023/10/25 00:46:39;;;;;;;;;;;14.60;99.90;;;;;;5087199;28;19912;-76
2023/10/25 00:49:05;;;;;;;;;;;14.60;99.90;;;;;;5082797;28;19912;-75
2023/10/25 00:51:31;;;;;;;;;;;14.60;99.90;;;;;;5078619;28;19912;-77
2023/10/25 00:53:59;;;;;;;;;;;14.60;99.90;;;;;;5079160;28;19923;-76
2023/10/25 00:56:25;;;;;;;;;;;14.60;99.90;;;;;;5077185;28;19916;-78
2023/10/25 00:58:55;;;;;;;;;;;14.60;99.90;;;;;;5077692;28;20402;-76
2023/10/25 01:01:21;;;;;;;;;;;14.60;99.90;;;;;;5077200;28;20342;-80
2023/10/25 01:03:47;;;;;;;;;;;14.60;99.90;;;;;;5090035;28;19924;-76
2023/10/25 01:06:13;;;;;;;;;;;14.70;99.90;;;;;;5094925;28;20456;-76
2023/10/25 01:08:38;;;;;;;;;;;14.70;99.90;;;;;;5087803;28;19908;-78
2023/10/25 01:11:04;;;;;;;;;;;14.70;99.90;;;;;;5087184;28;20018;-77
2023/10/25 01:13:30;;;;;;;;;;;14.70;99.90;;;;;;5092155;28;19912;-76
2023/10/25 01:15:56;;;;;;;;;;;14.70;99.90;;;;;;5095179;28;19913;-76
2023/10/25 01:18:22;;;;;;;;;;;14.70;99.90;;;;;;5091167;28;20371;-76
2023/10/25 01:20:48;;;;;;;;;;;14.70;99.90;;;;;;5090523;28;19916;-76
2023/10/25 01:23:14;;;;;;;;;;;14.80;99.90;;;;;;5088427;28;19909;-75
2023/10/25 01:25:41;;;;;;;;;;;14.80;99.90;;;;;;5086948;28;19969;-76
2023/10/25 01:28:06;;;;;;;;;;;14.80;99.90;;;;;;5076959;28;19921;-76
2023/10/25 01:30:32;;;;;;;;;;;14.70;99.90;;;;;;5084423;28;19912;-77
2023/10/25 01:33:01;;;;;;;;;;;14.70;99.90;;;;;;5088390;28;19912;-76
2023/10/25 01:35:26;;;;;;;;;;;14.80;99.90;;;;;;5088998;28;19959;-77
2023/10/25 01:37:52;;;;;;;;;;;14.80;99.90;;;;;;5080158;28;20403;-76
2023/10/25 01:40:18;;;;;;;;;;;14.70;99.90;;;;;;5086219;28;19912;-76
2023/10/25 01:42:44;;;;;;;;;;;14.80;99.90;;;;;;5080369;28;19916;-75
2023/10/25 01:45:11;;;;;;;;;;;14.70;99.90;;;;;;5077450;28;19909;-76
2023/10/25 01:47:37;;;;;;;;;;;14.70;99.90;;;;;;5077206;28;19920;-75
2023/10/25 01:50:02;;;;;;;;;;;14.70;99.90;;;;;;5076858;28;19961;-76
2023/10/25 01:52:28;;;;;;;;;;;14.70;99.90;;;;;;5077487;28;19947;-76
2023/10/25 01:54:53;;;;;;;;;;;14.70;99.90;;;;;;5077939;28;19912;-75
2023/10/25 01:57:19;;;;;;;;;;;14.70;99.90;;;;;;5076399;28;19912;-76
2023/10/25 01:59:44;;;;;;;;;;;14.70;99.90;;;;;;5076045;28;19916;-76
2023/10/25 02:02:10;;;;;;;;;;;14.70;99.90;;;;;;5076245;28;19999;-77
2023/10/25 02:04:36;;;;;;;;;;;14.70;99.90;;;;;;5077018;28;19912;-77
2023/10/25 02:07:02;;;;;;;;;;;14.70;99.90;;;;;;5078857;28;19919;-77
2023/10/25 02:09:28;;;;;;;;;;;14.80;99.90;;;;;;5096943;28;19931;-77
2023/10/25 02:11:53;;;;;;;;;;;14.80;99.90;;;;;;5095661;28;19908;-75
2023/10/25 02:14:19;;;;;;;;;;;14.80;99.90;;;;;;5096550;28;19923;-76
2023/10/25 02:16:44;;;;;;;;;;;14.90;99.90;;;;;;5095318;28;19974;-75
2023/10/25 02:19:10;;;;;;;;;;;14.80;99.90;;;;;;5096132;28;19908;-76
2023/10/25 02:21:35;;;;;;;;;;;14.80;99.90;;;;;;5094878;28;19909;-76
2023/10/25 02:24:01;;;;;;;;;;;14.80;99.90;;;;;;5095804;28;19923;-76
2023/10/25 02:26:27;;;;;;;;;;;14.80;99.90;;;;;;5094754;28;20387;-78
2023/10/25 02:28:53;;;;;;;;;;;14.80;99.90;;;;;;5095150;28;19920;-75
2023/10/25 02:31:18;;;;;;;;;;;14.90;99.90;;;;;;5090350;28;20003;-77
2023/10/25 02:33:44;;;;;;;;;;;14.90;99.90;;;;;;5085656;28;19912;-76
2023/10/25 02:36:09;;;;;;;;;;;14.90;99.90;;;;;;5082724;28;19927;-76
2023/10/25 02:38:35;;;;;;;;;;;14.90;99.90;;;;;;5087128;28;20296;-76
2023/10/25 02:41:00;;;;;;;;;;;14.90;99.90;;;;;;5076296;28;19935;-76
2023/10/25 02:43:26;;;;;;;;;;;14.90;99.90;;;;;;5075934;28;19908;-78
2023/10/25 02:45:52;;;;;;;;;;;14.80;99.90;;;;;;5076577;28;19912;-76
2023/10/25 02:48:18;;;;;;;;;;;14.70;99.90;;;;;;5074743;28;19995;-80
2023/10/25 02:50:43;;;;;;;;;;;14.60;99.90;;;;;;5075251;28;20000;-75
2023/10/25 02:53:09;;;;;;;;;;;14.70;99.90;;;;;;5076515;28;19915;-76
2023/10/25 02:55:35;;;;;;;;;;;14.60;99.90;;;;;;5075323;28;19918;-77
2023/10/25 02:58:01;;;;;;;;;;;14.50;99.90;;;;;;5075939;28;19913;-76
2023/10/25 03:00:26;;;;;;;;;;;14.40;99.90;;;;;;5074789;28;20263;-78
2023/10/25 03:02:52;;;;;;;;;;;14.40;99.90;;;;;;5074970;28;19912;-76
2023/10/25 03:05:18;;;;;;;;;;;14.30;99.90;;;;;;5070848;28;19912;-77
2023/10/25 03:07:43;;;;;;;;;;;14.20;99.90;;;;;;5083133;28;19912;-78
2023/10/25 03:10:09;;;;;;;;;;;14.10;99.90;;;;;;5087687;28;20398;-76
2023/10/25 03:12:34;;;;;;;;;;;14.00;99.90;;;;;;5094931;28;20295;-77
2023/10/25 03:15:00;;;;;;;;;;;14.00;99.90;;;;;;5095228;28;20007;-77
2023/10/25 03:17:28;;;;;;;;;;;14.00;99.90;;;;;;5087413;28;19991;-75
2023/10/25 03:19:54;;;;;;;;;;;13.90;99.90;;;;;;5076133;28;19944;-76
2023/10/25 03:22:19;;;;;;;;;;;14.00;99.90;;;;;;5076243;28;19908;-75
2023/10/25 03:24:45;;;;;;;;;;;13.90;99.90;;;;;;5074219;28;19909;-77
2023/10/25 03:27:10;;;;;;;;;;;13.90;99.90;;;;;;5075813;28;19916;-76
2023/10/25 03:29:36;;;;;;;;;;;13.90;99.90;;;;;;5088684;28;19912;-76
2023/10/25 03:32:03;;;;;;;;;;;13.90;99.90;;;;;;5075584;28;19908;-77
2023/10/25 03:34:29;;;;;;;;;;;13.90;99.90;;;;;;5075945;28;19999;-76
2023/10/25 03:36:54;;;;;;;;;;;13.90;99.90;;;;;;5075593;28;20072;-75
2023/10/25 03:39:20;;;;;;;;;;;13.90;99.90;;;;;;5075104;28;20015;-75
2023/10/25 03:41:45;;;;;;;;;;;13.90;99.90;;;;;;5075528;28;20046;-76
2023/10/25 03:44:11;;;;;;;;;;;14.00;99.90;;;;;;5079462;28;20033;-76
2023/10/25 03:46:38;;;;;;;;;;;14.10;99.90;;;;;;5080252;28;19958;-75
2023/10/25 03:49:03;;;;;;;;;;;14.10;99.90;;;;;;5081101;28;19909;-75
2023/10/25 03:51:29;;;;;;;;;;;14.20;99.90;;;;;;5080127;28;19979;-75
2023/10/25 03:53:55;;;;;;;;;;;14.10;99.90;;;;;;5080055;28;19938;-76
2023/10/25 03:56:21;;;;;;;;;;;14.20;99.90;;;;;;5079586;28;19917;-76
2023/10/25 03:58:46;;;;;;;;;;;14.10;99.90;;;;;;5079528;28;20434;-75
2023/10/25 04:01:13;;;;;;;;;;;14.10;99.90;;;;;;5078318;28;19909;-76
2023/10/25 04:03:39;;;;;;;;;;;14.10;99.90;;;;;;5079394;28;19916;-76
2023/10/25 04:06:05;;;;;;;;;;;14.10;99.90;;;;;;5079125;28;19919;-77
2023/10/25 04:08:31;;;;;;;;;;;14.10;99.90;;;;;;5082592;28;19912;-77
2023/10/25 04:10:57;;;;;;;;;;;14.00;99.90;;;;;;5080553;28;20459;-77
2023/10/25 04:13:23;;;;;;;;;;;14.00;99.90;;;;;;5078998;28;20424;-76
2023/10/25 04:16:09;;;;;;;;;;;14.00;99.90;;;;;;5079821;28;19947;-77
2023/10/25 04:18:35;;;;;;;;;;;13.90;99.90;;;;;;5080277;28;19915;-76
2023/10/25 04:21:01;;;;;;;;;;;13.90;99.90;;;;;;5077627;28;20112;-76
2023/10/25 04:23:30;;;;;;;;;;;13.90;99.90;;;;;;5078525;28;19980;-76
2023/10/25 04:26:02;;;;;;;;;;;14.00;99.90;;;;;;5088884;28;19974;-76
2023/10/25 04:28:28;;;;;;;;;;;14.00;99.90;;;;;;5077906;28;19947;-77
2023/10/25 04:30:54;;;;;;;;;;;14.00;99.90;;;;;;5079126;28;19908;-76
2023/10/25 04:33:19;;;;;;;;;;;14.00;99.90;;;;;;5097733;28;20387;-78
2023/10/25 04:35:45;;;;;;;;;;;14.00;99.90;;;;;;5098345;28;19920;-77
2023/10/25 04:38:10;;;;;;;;;;;14.00;99.90;;;;;;5092428;28;19912;-78
2023/10/25 04:40:36;;;;;;;;;;;14.00;99.90;;;;;;5077181;28;19912;-77
2023/10/25 04:43:01;;;;;;;;;;;14.10;99.90;;;;;;5078651;28;19912;-75
2023/10/25 04:45:29;;;;;;;;;;;14.10;99.90;;;;;;5079032;28;19909;-76
2023/10/25 04:47:54;;;;;;;;;;;14.10;99.90;;;;;;5078816;28;19908;-77
2023/10/25 04:50:21;;;;;;;;;;;14.10;99.90;;;;;;5065723;28;19908;-76
2023/10/25 04:52:46;;;;;;;;;;;14.10;99.90;;;;;;5079010;28;19966;-77
2023/10/25 04:55:12;;;;;;;;;;;14.20;99.90;;;;;;5077142;28;19917;-77
2023/10/25 04:57:37;;;;;;;;;;;14.20;99.90;;;;;;5079316;28;20360;-77
2023/10/25 05:00:03;;;;;;;;;;;14.20;99.90;;;;;;5077185;28;19909;-77
2023/10/25 05:02:29;;;;;;;;;;;14.20;99.90;;;;;;5077881;28;19951;-76
2023/10/25 05:04:56;;;;;;;;;;;14.20;99.90;;;;;;5077123;28;19909;-76
2023/10/25 05:07:21;;;;;;;;;;;14.20;99.90;;;;;;5078523;28;19916;-77
2023/10/25 05:09:47;;;;;;;;;;;14.20;99.90;;;;;;5078869;28;19913;-76
2023/10/25 05:12:17;;;;;;;;;;;14.20;99.90;;;;;;5059175;28;19913;-77
2023/10/25 05:14:42;;;;;;;;;;;14.20;99.90;;;;;;5070894;28;19912;-77
2023/10/25 05:17:09;;;;;;;;;;;14.30;99.90;;;;;;5092367;28;20004;-77
2023/10/25 05:19:35;;;;;;;;;;;14.30;99.90;;;;;;5089964;28;19932;-75
2023/10/25 05:22:05;;;;;;;;;;;14.30;99.90;;;;;;5087278;28;19996;-76
2023/10/25 05:24:31;;;;;;;;;;;14.40;99.90;;;;;;5083345;28;19916;-76
2023/10/25 05:26:57;;;;;;;;;;;14.40;99.90;;;;;;5077584;28;19912;-78
2023/10/25 05:29:22;;;;;;;;;;;14.40;99.90;;;;;;5077973;28;19917;-77
2023/10/25 05:31:48;;;;;;;;;;;14.30;99.90;;;;;;5070338;28;19961;-77
2023/10/25 05:34:13;;;;;;;;;;;14.30;99.90;;;;;;5094887;28;20023;-79
2023/10/25 05:36:39;;;;;;;;;;;14.30;99.90;;;;;;5091296;28;20380;-76
2023/10/25 05:39:05;;;;;;;;;;;14.30;99.90;;;;;;5094132;28;20284;-77
2023/10/25 05:41:36;;;;;;;;;;;14.30;99.90;;;;;;5077396;28;20205;-77
2023/10/25 05:44:06;;;;;;;;;;;14.30;99.90;;;;;;5094006;28;19908;-77
2023/10/25 05:46:31;;;;;;;;;;;14.30;99.90;;;;;;5090510;28;19916;-79
2023/10/25 05:48:57;;;;;;;;;;;14.30;99.90;;;;;;5093735;28;19912;-79
2023/10/25 05:51:23;;;;;;;;;;;14.20;99.90;;;;;;5080513;28;19912;-76
2023/10/25 05:53:49;;;;;;;;;;;14.20;99.90;;;;;;5082310;28;19912;-81
2023/10/25 05:56:16;;;;;;;;;;;14.20;99.90;;;;;;5080402;28;19919;-80
2023/10/25 05:58:41;;;;;;;;;;;14.30;99.90;;;;;;5083069;28;19912;-77
2023/10/25 06:01:08;;;;;;;;;;;14.30;99.90;;;;;;5069952;28;19916;-77
2023/10/25 06:03:34;;;;;;;;;;;14.30;99.90;;;;;;5080472;28;19919;-79
2023/10/25 06:06:00;;;;;;;;;;;14.20;99.90;;;;;;5078745;28;20384;-80
2023/10/25 06:08:26;;;;;;;;;;;14.20;99.90;;;;;;5082783;28;19915;-80
2023/10/25 06:10:51;;;;;;;;;;;14.00;99.90;;;;;;5078561;28;19912;-79
2023/10/25 06:13:17;;;;;;;;;;;13.90;99.90;;;;;;5082111;28;19993;-76
2023/10/25 06:15:43;;;;;;;;;;;13.80;99.90;;;;;;5079500;28;20308;-77
2023/10/25 06:18:10;;;;;;;;;;;13.70;99.90;;;;;;5081473;28;19959;-81
2023/10/25 06:20:35;;;;;;;;;;;13.60;99.90;;;;;;5079568;28;19908;-81
2023/10/25 06:23:01;;;;;;;;;;;13.60;99.90;;;;;;5069308;28;19912;-81
2023/10/25 06:25:27;;;;;;;;;;;13.60;99.90;;;;;;5078967;28;20014;-78
2023/10/25 06:27:53;;;;;;;;;;;13.50;99.90;;;;;;5081766;28;20405;-79
2023/10/25 06:30:18;;;;;;;;;;;13.50;99.90;;;;;;5079125;28;20696;-79
2023/10/25 06:32:44;;;;;;;;;;;13.50;99.90;;;;;;5079812;28;19985;-77
2023/10/25 06:35:09;;;;;;;;;;;13.50;99.90;;;;;;5084807;28;20407;-78
2023/10/25 06:37:35;;;;;;;;;;;13.50;99.90;;;;;;5092042;28;20494;-78
2023/10/25 06:40:00;;;;;;;;;;;13.50;99.90;;;;;;5085867;28;19944;-78
2023/10/25 06:42:26;;;;;;;;;;;13.40;99.90;;;;;;5095105;28;19912;-78
2023/10/25 06:44:52;;;;;;;;;;;13.40;99.90;;;;;;5095583;28;19908;-77
2023/10/25 06:47:18;;;;;;;;;;;13.40;99.90;;;;;;5094026;28;19999;-79
2023/10/25 06:49:43;;;;;;;;;;;13.30;99.90;;;;;;5094102;28;19957;-78
2023/10/25 06:52:09;;;;;;;;;;;13.30;99.90;;;;;;5090945;28;19908;-78
2023/10/25 06:54:35;;;;;;;;;;;13.30;99.90;;;;;;5088985;28;19912;-78
2023/10/25 06:57:00;;;;;;;;;;;13.30;99.90;;;;;;5090575;28;20431;-77
2023/10/25 06:59:26;;;;;;;;;;;13.30;99.90;;;;;;5088782;28;19912;-76
2023/10/25 07:02:08;;;;;;;;;;;13.30;99.90;;;;;;5090986;28;19908;-75
2023/10/25 07:04:34;;;;;;;;;;;13.30;99.90;;;;;;5083568;28;19915;-76
2023/10/25 07:07:00;;;;;;;;;;;13.30;99.90;;;;;;5084035;28;19908;-76
2023/10/25 07:09:26;;;;;;;;;;;13.40;99.90;;;;;;5076551;28;19958;-76
2023/10/25 07:11:51;;;;;;;;;;;13.40;99.90;;;;;;5081396;28;19912;-77
2023/10/25 07:14:17;;;;;;;;;;;13.50;99.90;;;;;;5081921;28;19908;-77
2023/10/25 07:16:42;;;;;;;;;;;13.70;99.90;;;;;;5084683;28;19918;-79
2023/10/25 07:19:08;;;;;;;;;;;13.90;99.90;;;;;;5081877;28;19908;-77
2023/10/25 07:21:33;;;;;;;;;;;14.10;99.90;;;;;;5084369;28;20007;-78
2023/10/25 07:23:59;;;;;;;;;;;14.10;99.90;;;;;;5080004;28;20001;-82
2023/10/25 07:26:24;;;;;;;;;;;14.30;99.90;;;;;;5083841;28;19993;-78
2023/10/25 07:28:50;;;;;;;;;;;14.30;99.90;;;;;;5071201;28;19929;-79
2023/10/25 07:31:16;;;;;;;;;;;14.40;99.90;;;;;;5083150;28;19912;-79
2023/10/25 07:33:42;;;;;;;;;;;14.50;99.90;;;;;;5081060;28;19912;-78
2023/10/25 07:36:08;;;;;;;;;;;14.50;99.90;;;;;;5065219;28;19938;-77
2023/10/25 07:38:33;;;;;;;;;;;14.50;99.90;;;;;;5077439;28;19915;-76
2023/10/25 07:40:59;;;;;;;;;;;14.50;99.90;;;;;;5080434;28;19909;-77
2023/10/25 07:43:24;;;;;;;;;;;14.60;99.90;;;;;;5081934;28;19909;-77
2023/10/25 07:45:50;;;;;;;;;;;14.60;99.90;;;;;;5081376;28;19908;-78
2023/10/25 07:48:16;;;;;;;;;;;14.60;99.90;;;;;;5076443;28;19919;-79
2023/10/25 07:50:42;;;;;;;;;;;14.60;99.90;;;;;;5079219;28;20399;-77
2023/10/25 07:53:07;;;;;;;;;;;14.70;99.90;;;;;;5080048;28;19995;-77
2023/10/25 07:55:33;;;;;;;;;;;14.80;99.90;;;;;;5080309;28;20291;-78
2023/10/25 07:57:58;;;;;;;;;;;14.70;99.90;;;;;;5076966;28;19909;-79
2023/10/25 08:00:24;;;;;;;;;;;14.80;99.90;;;;;;5081341;28;20011;-77
2023/10/25 08:02:50;;;;;;;;;;;14.90;99.90;;;;;;5082519;28;19976;-78
2023/10/25 08:05:15;;;;;;;;;;;15.00;99.90;;;;;;5081967;28;19909;-78
2023/10/25 08:07:42;;;;;;;;;;;15.10;99.90;;;;;;5076323;28;19924;-80
2023/10/25 08:10:08;;;;;;;;;;;15.20;99.90;;;;;;5079384;28;19961;-79
2023/10/25 08:12:34;;;;;;;;;;;15.20;99.90;;;;;;5078622;28;19916;-79
2023/10/25 08:15:00;;;;;;;;;;;15.30;99.90;;;;;;5082043;28;19908;-77
2023/10/25 08:17:25;;;;;;;;;;;15.30;99.90;;;;;;5079718;28;19919;-78
2023/10/25 08:19:51;;;;;;;;;;;15.40;99.90;;;;;;5081733;28;19921;-79
2023/10/25 08:22:16;;;;;;;;;;;15.50;99.90;;;;;;5078872;28;19912;-78
2023/10/25 08:24:42;;;;;;;;;;;15.50;99.90;;;;;;5084711;28;19934;-78
2023/10/25 08:27:07;;;;;;;;;;;15.50;99.90;;;;;;5078654;28;19927;-77
2023/10/25 08:29:33;;;;;;;;;;;15.60;99.90;;;;;;5077325;28;19908;-77
2023/10/25 08:31:59;;;;;;;;;;;15.70;99.90;;;;;;5080345;28;20338;-77
2023/10/25 08:34:24;;;;;;;;;;;15.80;99.90;;;;;;5083319;28;19915;-77
2023/10/25 08:36:52;;;;;;;;;;;15.80;99.90;;;;;;5079206;28;19995;-77
2023/10/25 08:39:21;;;;;;;;;;;15.90;99.90;;;;;;5082210;28;19979;-77
2023/10/25 08:41:47;;;;;;;;;;;16.00;99.90;;;;;;5079604;28;19908;-78
2023/10/25 08:44:12;;;;;;;;;;;16.10;99.90;;;;;;5078784;28;19924;-80
2023/10/25 08:46:40;;;;;;;;;;;16.10;99.90;;;;;;5077727;28;19919;-80
2023/10/25 08:49:05;;;;;;;;;;;16.20;99.90;;;;;;5081617;28;19956;-75
2023/10/25 08:51:31;;;;;;;;;;;16.30;99.90;;;;;;5078931;28;20404;-77
2023/10/25 08:53:59;;;;;;;;;;;16.40;99.90;;;;;;5076966;28;19917;-80
2023/10/25 08:56:28;;;;;;;;;;;16.50;99.90;;;;;;5076148;28;19916;-77
2023/10/25 08:58:56;;;;;;;;;;;16.50;99.90;;;;;;5074845;28;20403;-77
2023/10/25 09:01:22;;;;;;;;;;;16.60;99.90;;;;;;5080760;28;20502;-76
2023/10/25 09:03:47;;;;;;;;;;;16.70;99.90;;;;;;5074774;28;19978;-78
2023/10/25 09:06:22;;;;;;;;;;;16.70;99.90;;;;;;5077364;28;20849;-77
2023/10/25 09:08:55;;;;;;;;;;;16.80;99.90;;;;;;5074415;28;19909;-78
2023/10/25 09:11:21;;;;;;;;;;;16.80;99.90;;;;;;5077336;28;19973;-77
2023/10/25 09:13:54;;;;;;;;;;;16.90;99.90;;;;;;5079145;28;19983;-77
2023/10/25 09:16:19;;;;;;;;;;;16.90;99.90;;;;;;5076574;28;19924;-77
2023/10/25 09:18:45;;;;;;;;;;;17.00;99.90;;;;;;5079952;28;19909;-78
2023/10/25 09:21:11;;;;;;;;;;;17.10;99.90;;;;;;5080086;28;19919;-77
2023/10/25 09:23:36;;;;;;;;;;;17.30;99.90;;;;;;5077063;28;19909;-77
2023/10/25 09:26:11;;;;;;;;;;;17.40;99.90;;;;;;5077881;28;19952;-75
2023/10/25 09:28:37;;;;;;;;;;;17.50;99.90;;;;;;5075951;28;19943;-76
2023/10/25 09:31:18;;;;;;;;;;;17.50;99.90;;;;;;5078311;28;20346;-74
2023/10/25 09:33:46;;;;;;;;;;;17.60;99.90;;;;;;5076150;28;19916;-75
2023/10/25 09:36:12;;;;;;;;;;;17.70;99.90;;;;;;5073078;28;19920;-75
2023/10/25 09:38:38;;;;;;;;;;;17.80;99.90;;;;;;5076785;28;19947;-75
2023/10/25 09:41:04;;;;;;;;;;;17.90;99.90;;;;;;5071381;28;19916;-77
2023/10/25 09:43:31;;;;;;;;;;;17.90;99.90;;;;;;5079675;28;19948;-75
2023/10/25 09:45:57;;;;;;;;;;;17.90;99.90;;;;;;5074362;28;19927;-76
2023/10/25 09:48:23;;;;;;;;;;;17.90;99.90;;;;;;5077334;28;19908;-75
2023/10/25 09:51:02;;;;;;;;;;;17.90;99.90;;;;;;5077991;28;19915;-74
2023/10/25 09:53:32;;;;;;;;;;;17.70;99.90;;;;;;5080451;28;19908;-75
2023/10/25 09:56:00;;;;;;;;;;;17.90;99.90;;;;;;5076220;28;19912;-75
2023/10/25 09:58:27;;;;;;;;;;;18.20;99.90;;;;;;5077889;28;20289;-76
2023/10/25 10:00:52;;;;;;;;;;;18.50;99.90;;;;;;5078609;28;19908;-75
2023/10/25 10:03:30;;;;;;;;;;;18.70;99.90;;;;;;5077190;28;19908;-75
2023/10/25 10:05:58;;;;;;;;;;;18.70;99.90;;;;;;5071894;28;20007;-76
2023/10/25 10:08:29;;;;;;;;;;;18.70;99.90;;;;;;5076995;28;19919;-76
2023/10/25 10:11:00;;;;;;;;;;;18.60;99.90;;;;;;5076369;28;19919;-75
2023/10/25 10:13:26;;;;;;;;;;;18.60;99.90;;;;;;5072284;28;20368;-76
2023/10/25 10:16:04;;;;;;;;;;;18.50;99.90;;;;;;5077530;28;20027;-75
2023/10/25 10:18:33;;;;;;;;;;;18.50;99.90;;;;;;5075599;28;19948;-74
2023/10/25 10:21:00;;;;;;;;;;;18.50;99.90;;;;;;5072314;28;19909;-76
2023/10/25 10:23:35;;;;;;;;;;;18.50;99.90;;;;;;5071038;28;19916;-75
2023/10/25 10:26:02;;;;;;;;;;;18.80;99.90;;;;;;5076427;28;19924;-76
2023/10/25 10:28:43;;;;;;;;;;;18.80;99.90;;;;;;5078298;28;19920;-75
2023/10/25 10:31:12;;;;;;;;;;;18.70;99.90;;;;;;5075810;28;19924;-75
2023/10/25 10:33:45;;;;;;;;;;;18.60;99.90;;;;;;5069275;28;19912;-75
2023/10/25 10:36:21;;;;;;;;;;;18.50;99.90;;;;;;5074181;28;19927;-75
2023/10/25 10:39:25;;;;;;;;;;;18.50;99.90;;;;;;5073975;28;20026;-74
2023/10/25 10:41:51;;;;;;;;;;;18.50;99.90;;;;;;5032873;28;20484;-75
2023/10/25 10:44:16;;;;;;;;;;;18.60;99.90;;;;;;5051994;28;20130;-75
2023/10/25 10:47:00;;;;;;;;;;;18.60;99.90;;;;;;5060601;28;19918;-75
2023/10/25 10:49:30;;;;;;;;;;;18.60;99.90;;;;;;5082207;28;19912;-75
2023/10/25 10:51:55;;;;;;;;;;;18.60;99.90;;;;;;5074063;28;19916;-74
2023/10/25 10:54:21;;;;;;;;;;;18.70;99.90;;;;;;5074434;28;20487;-75
2023/10/25 10:56:47;;;;;;;;;;;18.80;99.90;;;;;;5075250;28;19921;-75
2023/10/25 10:59:12;;;;;;;;;;;18.90;99.90;;;;;;5078503;28;19913;-74
2023/10/25 11:01:38;;;;;;;;;;;19.00;99.90;;;;;;5078933;28;20364;-75
2023/10/25 11:04:03;;;;;;;;;;;19.10;99.90;;;;;;5075901;28;19915;-75
2023/10/25 11:06:29;;;;;;;;;;;19.20;99.90;;;;;;5075618;28;19915;-75
2023/10/25 11:08:58;;;;;;;;;;;19.20;99.90;;;;;;5076935;28;20343;-75
2023/10/25 11:11:23;;;;;;;;;;;19.10;99.90;;;;;;5074707;28;19912;-74
2023/10/25 11:13:49;;;;;;;;;;;19.10;99.90;;;;;;5077463;28;19923;-74
2023/10/25 11:16:15;;;;;;;;;;;19.10;99.90;;;;;;5077984;28;19923;-75
2023/10/25 11:18:41;;;;;;;;;;;19.20;99.90;;;;;;5078585;28;19912;-76
2023/10/25 11:21:06;;;;;;;;;;;19.10;99.90;;;;;;5076370;28;19913;-75
2023/10/25 11:23:32;;;;;;;;;;;19.10;99.90;;;;;;5077610;28;19912;-76
2023/10/25 11:25:58;;;;;;;;;;;19.20;99.90;;;;;;5075100;28;19908;-75
2023/10/25 11:28:23;;;;;;;;;;;19.30;99.90;;;;;;5074709;28;19924;-76
2023/10/25 11:30:50;;;;;;;;;;;19.30;99.90;;;;;;5077763;28;20638;-74
2023/10/25 11:33:16;;;;;;;;;;;19.40;99.90;;;;;;5077211;28;19909;-76
2023/10/25 11:35:42;;;;;;;;;;;19.50;99.90;;;;;;5075262;28;19915;-76
2023/10/25 11:38:09;;;;;;;;;;;19.50;99.90;;;;;;5072842;28;19919;-76
2023/10/25 11:40:43;;;;;;;;;;;19.40;99.90;;;;;;5075798;28;19909;-75
2023/10/25 11:43:09;;;;;;;;;;;19.50;99.90;;;;;;5075355;28;19919;-74
2023/10/25 11:45:35;;;;;;;;;;;19.40;99.90;;;;;;5072610;28;19909;-74
2023/10/25 11:48:02;;;;;;;;;;;19.40;99.90;;;;;;5078366;28;19939;-78
2023/10/25 11:50:27;;;;;;;;;;;19.40;99.90;;;;;;5079130;28;19919;-75
2023/10/25 11:52:53;;;;;;;;;;;19.40;99.90;;;;;;5075875;28;20007;-77
2023/10/25 11:55:19;;;;;;;;;;;19.50;99.90;;;;;;5078020;28;19919;-75
2023/10/25 11:57:44;;;;;;;;;;;19.40;99.90;;;;;;5074510;28;19928;-74
2023/10/25 12:00:10;;;;;;;;;;;19.40;99.90;;;;;;5076248;28;19953;-77
2023/10/25 12:02:35;;;;;;;;;;;19.30;99.90;;;;;;5076480;28;19954;-73
2023/10/25 12:05:03;;;;;;;;;;;19.30;99.90;;;;;;5079621;28;19912;-76
2023/10/25 12:07:30;;;;;;;;;;;19.30;99.90;;;;;;5071959;28;20331;-74
2023/10/25 12:09:56;;;;;;;;;;;19.30;99.90;;;;;;5082281;28;19913;-77
2023/10/25 12:12:22;;;;;;;;;;;19.30;99.90;;;;;;5078994;28;19934;-78
2023/10/25 12:14:48;;;;;;;;;;;19.30;99.90;;;;;;5080830;28;19914;-77
2023/10/25 12:17:14;;;;;;;;;;;19.40;99.90;;;;;;5077101;28;20003;-76
2023/10/25 12:19:40;;;;;;;;;;;19.40;99.90;;;;;;5080207;28;19947;-78
2023/10/25 12:22:10;;;;;;;;;;;19.50;99.90;;;;;;5082010;28;20334;-75
2023/10/25 12:24:36;;;;;;;;;;;19.40;99.90;;;;;;5079535;28;19915;-78
2023/10/25 12:27:02;;;;;;;;;;;19.50;99.90;;;;;;5077146;28;20367;-77
2023/10/25 12:29:28;;;;;;;;;;;19.60;99.90;;;;;;5081801;28;19908;-75
2023/10/25 12:31:53;;;;;;;;;;;19.50;99.90;;;;;;5079411;28;19967;-74
2023/10/25 12:34:19;;;;;;;;;;;19.50;99.90;;;;;;5080774;28;19961;-77
2023/10/25 12:36:44;;;;;;;;;;;19.50;99.90;;;;;;5082808;28;19981;-78
2023/10/25 12:39:10;;;;;;;;;;;19.50;99.90;;;;;;5079848;28;19962;-77
2023/10/25 12:41:35;;;;;;;;;;;19.50;99.90;;;;;;5079221;28;19908;-76
2023/10/25 12:44:08;;;;;;;;;;;19.60;99.90;;;;;;5076453;28;19920;-76
2023/10/25 12:46:34;;;;;;;;;;;19.60;99.90;;;;;;5081026;28;19915;-76
2023/10/25 12:48:59;;;;;;;;;;;19.60;99.90;;;;;;5078987;28;19912;-78
2023/10/25 12:51:25;;;;;;;;;;;19.70;99.90;;;;;;5081329;28;19920;-77
2023/10/25 12:53:51;;;;;;;;;;;19.70;99.90;;;;;;5083985;28;19963;-75
2023/10/25 12:56:16;;;;;;;;;;;19.80;99.90;;;;;;5078847;28;19912;-76
2023/10/25 12:58:42;;;;;;;;;;;19.80;99.90;;;;;;5077408;28;20383;-76
2023/10/25 13:01:08;;;;;;;;;;;19.80;99.90;;;;;;5080944;28;19916;-75
2023/10/25 13:03:33;;;;;;;;;;;19.70;99.90;;;;;;5081690;28;19916;-75
2023/10/25 13:05:59;;;;;;;;;;;19.60;99.90;;;;;;5075468;28;19919;-75
2023/10/25 13:08:25;;;;;;;;;;;19.50;99.90;;;;;;5077473;28;20523;-76
2023/10/25 13:10:50;;;;;;;;;;;19.40;99.90;;;;;;5076637;28;20743;-74
2023/10/25 13:13:16;;;;;;;;;;;19.30;99.90;;;;;;5078207;28;19913;-76
2023/10/25 13:15:42;;;;;;;;;;;19.30;99.90;;;;;;5073717;28;20435;-74
2023/10/25 13:18:07;;;;;;;;;;;19.30;99.90;;;;;;5075341;28;20297;-78
2023/10/25 13:20:33;;;;;;;;;;;19.30;99.90;;;;;;5079809;28;20041;-77
2023/10/25 13:22:59;;;;;;;;;;;19.40;99.90;;;;;;5079165;28;19971;-77
2023/10/25 13:25:25;;;;;;;;;;;19.40;99.90;;;;;;5076551;28;19908;-77
2023/10/25 13:27:50;;;;;;;;;;;19.40;99.90;;;;;;5076395;28;19931;-75
2023/10/25 13:30:16;;;;;;;;;;;19.50;99.90;;;;;;5076625;28;20343;-76
2023/10/25 13:32:41;;;;;;;;;;;19.40;99.90;;;;;;5078418;28;19916;-76
2023/10/25 13:35:08;;;;;;;;;;;19.50;99.90;;;;;;5080040;28;19913;-77
2023/10/25 13:37:33;;;;;;;;;;;19.50;99.90;;;;;;5075178;28;20404;-76
2023/10/25 13:40:02;;;;;;;;;;;19.50;99.90;;;;;;5077090;28;20665;-76
2023/10/25 13:42:28;;;;;;;;;;;19.50;99.90;;;;;;5078981;28;19962;-77
2023/10/25 13:44:54;;;;;;;;;;;19.50;99.90;;;;;;5080058;28;19908;-77
2023/10/25 13:47:19;;;;;;;;;;;19.60;99.90;;;;;;5076004;28;19916;-76
2023/10/25 13:49:45;;;;;;;;;;;19.60;99.90;;;;;;5083396;28;19917;-75
2023/10/25 13:52:11;;;;;;;;;;;19.50;99.90;;;;;;5080593;28;19912;-77
2023/10/25 13:54:36;;;;;;;;;;;19.50;99.90;;;;;;5077869;28;19912;-77
2023/10/25 13:57:02;;;;;;;;;;;19.40;99.90;;;;;;5076813;28;19924;-77
2023/10/25 13:59:28;;;;;;;;;;;19.40;99.90;;;;;;5080592;28;20380;-77
2023/10/25 14:01:53;;;;;;;;;;;19.30;99.90;;;;;;5078337;28;19947;-78
2023/10/25 14:04:20;;;;;;;;;;;19.20;99.90;;;;;;5074778;28;19908;-77
2023/10/25 14:06:45;;;;;;;;;;;19.20;99.90;;;;;;5078946;28;19908;-78
2023/10/25 14:09:11;;;;;;;;;;;19.10;99.90;;;;;;5077814;28;19966;-77
2023/10/25 14:11:37;;;;;;;;;;;19.10;99.90;;;;;;5079792;28;19913;-78